Time;durP1;ratioP1;P1;durP2;ratioP2;P2;SDS_P1;SDS_P2;PMS_P1;PMS_P2;Temp;Humidity;BMP_temperature;BMP_pressure;BME280_temperature;BME280_humidity;BME280_pressure;Samples;Min_cycle;Max_cycle;Signal;HPM_P1;HPM_P2
2023/05/07 00:01:02;;;;;;;;;1.33;1.33;;;;;17.74;73.20;100963.59;5090554;28;46421;-71
2023/05/07 00:03:27;;;;;;;;;2.00;2.00;;;;;17.80;73.11;100987.88;5072657;27;44969;-71
2023/05/07 00:05:53;;;;;;;;;3.00;1.67;;;;;17.76;73.71;100972.59;5086774;27;45028;-70
2023/05/07 00:08:18;;;;;;;;;6.00;4.33;;;;;17.73;73.54;100951.84;5094566;27;44973;-70
2023/05/07 00:10:44;;;;;;;;;3.00;3.00;;;;;17.89;73.27;100978.94;5090953;28;45432;-71
2023/05/07 00:13:10;;;;;;;;;4.33;2.00;;;;;17.85;73.25;100975.28;5090409;28;45151;-71
2023/05/07 00:15:35;;;;;;;;;1.00;1.00;;;;;17.69;73.54;100950.06;5083978;27;45405;-71
2023/05/07 00:18:01;;;;;;;;;3.33;2.00;;;;;17.75;73.46;100969.00;5085262;28;44978;-71
2023/05/07 00:20:26;;;;;;;;;1.67;1.67;;;;;17.71;73.47;100971.69;5088542;27;45355;-70
2023/05/07 00:22:52;;;;;;;;;2.00;1.33;;;;;17.69;73.91;100968.97;5094193;27;45554;-71
2023/05/07 00:25:19;;;;;;;;;1.00;1.00;;;;;17.69;74.33;100968.97;5088545;27;45029;-71
2023/05/07 00:27:45;;;;;;;;;3.00;3.00;;;;;17.56;73.89;100937.44;5090902;28;45134;-71
2023/05/07 00:30:11;;;;;;;;;2.00;2.00;;;;;17.82;73.70;100978.91;5071264;28;46231;-72
2023/05/07 00:32:36;;;;;;;;;1.00;1.00;;;;;17.76;73.72;100972.59;5085743;27;45149;-72
2023/05/07 00:35:02;;;;;;;;;3.00;3.00;;;;;17.79;73.33;100975.28;5086108;28;45008;-71
2023/05/07 00:37:28;;;;;;;;;2.00;2.00;;;;;17.74;73.27;100969.88;5089183;28;45171;-71
2023/05/07 00:39:53;;;;;;;;;2.33;2.00;;;;;17.78;73.66;100982.47;5092010;27;53344;-70
2023/05/07 00:42:18;;;;;;;;;3.00;3.00;;;;;17.73;73.79;100967.19;5073007;28;45204;-70
2023/05/07 00:44:44;;;;;;;;;5.00;4.67;;;;;17.84;73.61;100970.78;5082908;27;45122;-69
2023/05/07 00:47:10;;;;;;;;;4.00;4.00;;;;;17.82;73.69;100968.09;5088684;27;45239;-71
2023/05/07 00:49:41;;;;;;;;;4.33;3.00;;;;;17.88;72.97;100978.00;5067063;28;45757;-68
2023/05/07 00:52:08;;;;;;;;;2.00;2.00;;;;;17.91;73.19;100975.31;5095046;28;45277;-69
2023/05/07 00:54:35;;;;;;;;;3.00;2.67;;;;;17.89;73.22;100968.13;5096075;27;45316;-69
2023/05/07 00:57:02;;;;;;;;;2.00;2.00;;;;;17.86;72.76;100963.56;5092323;27;44922;-68
2023/05/07 00:59:27;;;;;;;;;4.00;2.67;;;;;17.88;72.67;100960.91;5094804;27;45806;-69
2023/05/07 01:01:53;;;;;;;;;1.00;1.00;;;;;17.86;72.65;100967.16;5083584;27;44956;-68
2023/05/07 01:04:18;;;;;;;;;2.00;0.33;;;;;17.85;72.40;100976.19;5089709;27;45108;-70
2023/05/07 01:06:45;;;;;;;;;0.33;0.33;;;;;17.79;72.23;100959.97;5094459;28;45347;-69
2023/05/07 01:09:11;;;;;;;;;5.00;2.00;;;;;17.73;72.54;100950.97;5098298;27;45402;-69
2023/05/07 01:11:37;;;;;;;;;1.00;1.00;;;;;17.77;72.43;100955.44;5090000;27;44931;-69
2023/05/07 01:14:03;;;;;;;;;2.00;1.00;;;;;17.84;72.60;100966.28;5094142;27;45161;-69
2023/05/07 01:16:28;;;;;;;;;1.00;1.00;;;;;17.79;72.51;100959.97;5085796;27;45311;-68
2023/05/07 01:18:53;;;;;;;;;3.00;1.00;;;;;17.64;72.76;100930.25;5088283;28;45220;-70
2023/05/07 01:21:26;;;;;;;;;3.00;3.00;;;;;17.64;73.43;100923.03;5093102;27;45071;-70
2023/05/07 01:23:52;;;;;;;;;2.00;0.33;;;;;17.83;72.94;100952.75;5092947;28;45167;-71
2023/05/07 01:26:19;;;;;;;;;0.67;0.67;;;;;17.65;72.52;100918.53;5091144;27;44978;-68
2023/05/07 01:28:45;;;;;;;;;1.33;1.00;;;;;17.74;72.18;100940.16;5088104;28;46794;-70
2023/05/07 01:31:13;;;;;;;;;1.00;1.00;;;;;17.73;72.06;100943.75;5094963;28;45031;-71
2023/05/07 01:33:41;;;;;;;;;1.00;1.00;;;;;17.75;72.33;100947.38;5097955;27;45211;-70
2023/05/07 01:36:08;;;;;;;;;0.00;0.00;;;;;17.73;71.73;100943.75;5088724;28;45076;-71
2023/05/07 01:38:36;;;;;;;;;1.00;1.00;;;;;17.71;71.57;100933.84;5092606;28;45085;-68
2023/05/07 01:41:02;;;;;;;;;0.00;0.00;;;;;17.77;71.91;100947.34;5088312;27;45099;-69
2023/05/07 01:43:29;;;;;;;;;0.00;0.00;;;;;17.72;72.23;100939.25;5092912;27;45092;-70
2023/05/07 01:45:55;;;;;;;;;2.00;2.00;;;;;17.69;72.34;100929.34;5092597;28;45123;-71
2023/05/07 01:48:21;;;;;;;;;0.33;0.00;;;;;17.76;72.26;100938.34;5075445;28;45520;-70
2023/05/07 01:50:47;;;;;;;;;0.00;0.00;;;;;17.85;71.33;100948.25;5084876;28;45142;-69
2023/05/07 01:53:13;;;;;;;;;0.33;0.33;;;;;17.88;71.36;100958.19;5093726;27;45016;-72
2023/05/07 01:55:38;;;;;;;;;5.00;5.00;;;;;17.77;71.71;100931.13;5096543;27;45522;-68
2023/05/07 01:58:04;;;;;;;;;1.33;1.33;;;;;17.88;71.62;100955.50;5085107;27;45334;-70
2023/05/07 02:00:30;;;;;;;;;1.00;1.00;;;;;17.88;71.80;100950.09;5092722;27;45113;-70
2023/05/07 02:02:56;;;;;;;;;2.67;1.33;;;;;17.83;72.10;100955.47;5090283;27;45243;-70
2023/05/07 02:05:22;;;;;;;;;3.00;3.00;;;;;17.74;72.64;100939.25;5086022;27;45209;-71
2023/05/07 02:07:48;;;;;;;;;2.00;2.00;;;;;17.83;72.28;100950.94;5088863;28;45928;-68
2023/05/07 02:10:13;;;;;;;;;2.33;2.00;;;;;17.79;72.75;100938.34;5091545;27;45150;-71
2023/05/07 02:12:39;;;;;;;;;6.00;2.67;;;;;17.82;72.45;100945.56;5090616;27;45190;-67
2023/05/07 02:15:05;;;;;;;;;1.00;1.00;;;;;17.74;72.46;100931.16;5092926;28;45090;-71
2023/05/07 02:17:32;;;;;;;;;2.00;2.00;;;;;17.77;72.89;100947.34;5092901;27;45813;-71
2023/05/07 02:19:58;;;;;;;;;2.00;1.00;;;;;17.82;72.84;100954.56;5095863;28;45666;-71
2023/05/07 02:22:23;;;;;;;;;2.00;1.67;;;;;17.85;73.20;100956.34;5092115;27;45048;-71
2023/05/07 02:24:49;;;;;;;;;2.33;2.00;;;;;17.85;73.51;100954.56;5094319;27;45192;-70
2023/05/07 02:27:14;;;;;;;;;2.00;2.00;;;;;17.88;73.27;100959.09;5092381;28;45660;-70
2023/05/07 02:29:39;;;;;;;;;1.00;1.00;;;;;17.86;73.34;100952.75;5087745;27;44903;-69
2023/05/07 02:32:05;;;;;;;;;3.00;2.33;;;;;17.88;73.83;100952.78;5091953;28;45029;-69
2023/05/07 02:34:30;;;;;;;;;1.67;1.33;;;;;17.71;73.75;100926.63;5094393;27;45098;-71
2023/05/07 02:36:55;;;;;;;;;2.33;2.33;;;;;17.88;74.07;100950.97;5093280;27;45512;-69
2023/05/07 02:39:21;;;;;;;;;3.00;2.00;;;;;17.91;73.56;100960.91;5082389;28;45355;-68
2023/05/07 02:41:46;;;;;;;;;1.33;1.33;;;;;17.81;72.81;100941.06;5093071;27;45002;-71
2023/05/07 02:44:11;;;;;;;;;1.33;1.00;;;;;17.88;73.15;100961.78;5085606;27;45138;-68
2023/05/07 02:46:37;;;;;;;;;2.00;2.00;;;;;17.88;73.60;100963.59;5085834;27;45563;-70
2023/05/07 02:49:02;;;;;;;;;2.00;2.00;;;;;17.86;73.43;100969.88;5079275;28;49111;-70
2023/05/07 02:51:27;;;;;;;;;3.33;3.33;;;;;17.80;74.15;100967.19;5089633;28;45070;-69
2023/05/07 02:53:53;;;;;;;;;3.00;3.00;;;;;17.85;74.11;100968.09;5091193;28;45664;-69
2023/05/07 02:56:18;;;;;;;;;11.33;10.33;;;;;17.64;73.05;100938.34;5085851;27;46382;-68
2023/05/07 02:58:43;;;;;;;;;18.33;16.67;;;;;17.85;72.60;100968.09;5088694;27;62555;-66
2023/05/07 03:01:09;;;;;;;;;55.50;41.75;;;;;17.58;72.03;100928.44;5088845;27;47325;-68
2023/05/07 03:03:35;;;;;;;;;28.67;25.67;;;;;17.80;72.06;100971.66;5086961;27;44942;-68
2023/05/07 03:06:00;;;;;;;;;32.00;29.25;;;;;17.72;73.01;100954.56;5092082;28;45849;-70
2023/05/07 03:08:26;;;;;;;;;24.00;22.33;;;;;17.47;72.42;100901.44;5092755;27;45074;-70
2023/05/07 03:10:52;;;;;;;;;32.25;25.75;;;;;17.64;72.41;100931.16;5092668;28;44952;-72
2023/05/07 03:13:17;;;;;;;;;22.67;22.67;;;;;17.68;72.76;100941.03;5095862;27;44957;-72
2023/05/07 03:15:42;;;;;;;;;31.00;24.25;;;;;17.82;72.46;100968.09;5088696;27;45723;-72
2023/05/07 03:18:08;;;;;;;;;28.67;24.33;;;;;17.76;72.77;100957.25;5089329;28;45222;-68
2023/05/07 03:20:33;;;;;;;;;20.33;19.33;;;;;17.75;73.63;100951.84;5083624;27;44996;-71
2023/05/07 03:22:58;;;;;;;;;22.33;16.33;;;;;17.81;73.38;100966.25;5090190;28;45218;-71
2023/05/07 03:25:24;;;;;;;;;7.33;7.33;;;;;17.82;73.19;100969.91;5086683;27;48858;-71
2023/05/07 03:27:49;;;;;;;;;4.33;4.33;;;;;17.64;72.60;100944.66;5066694;28;45338;-69
2023/05/07 03:30:15;;;;;;;;;0.33;0.33;;;;;17.75;71.93;100950.06;5092342;28;45117;-71
2023/05/07 03:32:40;;;;;;;;;5.33;1.67;;;;;17.55;72.88;100919.44;5092358;28;45203;-70
2023/05/07 03:35:06;;;;;;;;;4.00;2.67;;;;;17.68;72.85;100934.75;5090538;27;46077;-72
2023/05/07 03:37:31;;;;;;;;;2.33;1.33;;;;;17.77;72.36;100952.75;5077459;28;45366;-70
2023/05/07 03:39:57;;;;;;;;;1.00;1.00;;;;;17.72;72.94;100958.19;5092146;27;45288;-71
2023/05/07 03:42:22;;;;;;;;;1.00;1.00;;;;;17.69;73.81;100959.06;5084619;28;45460;-66
2023/05/07 03:44:48;;;;;;;;;1.67;1.67;;;;;17.55;74.16;100935.63;5073824;27;46926;-69
2023/05/07 03:47:13;;;;;;;;;1.00;1.00;;;;;17.60;73.90;100959.03;5080950;27;45244;-71
2023/05/07 03:49:39;;;;;;;;;3.00;1.00;;;;;17.61;74.27;100960.84;5053264;27;45331;-68
2023/05/07 03:52:05;;;;;;;;;1.33;1.33;;;;;17.55;74.16;100958.16;5086536;27;45611;-67
2023/05/07 03:54:30;;;;;;;;;1.67;1.00;;;;;17.61;73.83;100971.66;5090205;28;45477;-69
2023/05/07 03:56:55;;;;;;;;;0.00;0.00;;;;;17.43;73.69;100953.63;5091707;27;45221;-71
2023/05/07 03:59:21;;;;;;;;;2.33;0.67;;;;;17.53;73.56;100988.78;5090545;28;50819;-73
2023/05/07 04:01:47;;;;;;;;;1.00;1.00;;;;;17.49;74.02;100995.97;5057031;28;45247;-70
2023/05/07 04:04:12;;;;;;;;;0.33;0.33;;;;;17.40;73.76;100982.44;5071694;28;45979;-72
2023/05/07 04:06:37;;;;;;;;;1.00;1.00;;;;;17.46;74.24;100988.75;5086191;28;45198;-70
2023/05/07 04:09:03;;;;;;;;;0.67;0.67;;;;;17.28;73.57;100945.50;5092932;27;45110;-68
2023/05/07 04:11:28;;;;;;;;;1.67;0.00;;;;;17.37;73.12;100967.13;5090968;27;44945;-72
2023/05/07 04:13:53;;;;;;;;;0.00;0.00;;;;;17.26;72.71;100941.91;5092626;28;45976;-72
2023/05/07 04:16:19;;;;;;;;;0.00;0.00;;;;;17.45;73.25;100965.34;5092230;28;45020;-72
2023/05/07 04:18:44;;;;;;;;;0.00;0.00;;;;;17.53;72.11;100972.56;5091840;28;45606;-71
2023/05/07 04:21:17;;;;;;;;;2.33;0.00;;;;;17.55;72.30;100977.06;5084610;27;47540;-70
2023/05/07 04:23:42;;;;;;;;;0.00;0.00;;;;;17.59;72.05;100981.56;5086440;27;45693;-70
2023/05/07 04:26:08;;;;;;;;;2.00;0.00;;;;;17.59;72.79;100977.97;5094776;27;45281;-68
2023/05/07 04:28:34;;;;;;;;;0.33;0.33;;;;;17.48;72.46;100968.03;5089115;27;45507;-68
2023/05/07 04:30:59;;;;;;;;;0.00;0.00;;;;;17.58;72.46;100995.09;5093702;28;45054;-69
2023/05/07 04:33:24;;;;;;;;;1.67;1.33;;;;;17.42;73.10;100973.47;5092258;28;45975;-68
2023/05/07 04:35:50;;;;;;;;;0.67;0.67;;;;;17.59;73.28;100994.19;5091714;27;44985;-68
2023/05/07 04:38:16;;;;;;;;;1.00;1.00;;;;;17.60;73.50;100993.28;5092567;27;45570;-69
2023/05/07 04:40:42;;;;;;;;;0.00;0.00;;;;;17.39;73.23;100956.31;5099583;27;44912;-68
2023/05/07 04:43:08;;;;;;;;;3.00;1.00;;;;;17.34;72.89;100955.41;5094130;27;45666;-72
2023/05/07 04:45:35;;;;;;;;;1.00;1.00;;;;;17.56;72.59;100996.88;5098321;27;45266;-68
2023/05/07 04:48:00;;;;;;;;;0.67;0.67;;;;;17.57;72.83;101004.06;5092660;28;45227;-71
2023/05/07 04:50:26;;;;;;;;;1.67;1.67;;;;;17.47;73.33;101004.06;5093500;28;45918;-69
2023/05/07 04:52:51;;;;;;;;;0.67;0.67;;;;;17.44;73.03;100995.97;5093526;27;46515;-71
2023/05/07 04:55:17;;;;;;;;;1.00;1.00;;;;;17.20;73.56;100967.09;5093078;28;45107;-70
2023/05/07 04:57:42;;;;;;;;;4.33;1.00;;;;;17.43;73.57;101009.47;5086483;28;45685;-68
2023/05/07 05:00:13;;;;;;;;;2.00;2.00;;;;;17.43;74.33;101022.97;5092298;27;44970;-69
2023/05/07 05:02:39;;;;;;;;;2.00;1.00;;;;;17.43;74.10;101029.25;5089328;27;45597;-67
2023/05/07 05:05:05;;;;;;;;;1.00;1.00;;;;;17.43;74.77;101026.56;5094176;28;45105;-69
2023/05/07 05:07:30;;;;;;;;;1.00;1.00;;;;;17.42;74.02;101021.16;5093912;28;45211;-68
2023/05/07 05:09:57;;;;;;;;;2.00;2.00;;;;;17.30;74.59;101012.13;5094232;28;45131;-68
2023/05/07 05:12:22;;;;;;;;;1.33;0.00;;;;;17.39;75.31;101031.94;5090371;27;45962;-70
2023/05/07 05:14:47;;;;;;;;;0.00;0.00;;;;;17.36;74.93;101023.84;5095234;28;45197;-69
2023/05/07 05:17:13;;;;;;;;;1.33;1.00;;;;;17.24;74.68;101001.31;5097713;27;45198;-71
2023/05/07 05:19:38;;;;;;;;;1.67;0.33;;;;;17.36;74.35;101022.06;5094539;28;49484;-70
2023/05/07 05:22:03;;;;;;;;;0.00;0.00;;;;;17.26;74.01;101009.44;5094186;28;45155;-68
2023/05/07 05:24:29;;;;;;;;;0.00;0.00;;;;;17.38;74.49;101031.06;5093787;27;45211;-68
2023/05/07 05:26:55;;;;;;;;;1.00;0.00;;;;;17.37;73.87;101036.44;5094464;27;45148;-69
2023/05/07 05:29:20;;;;;;;;;0.00;0.00;;;;;17.39;73.64;101042.75;5094264;28;44982;-71
2023/05/07 05:31:46;;;;;;;;;0.00;0.00;;;;;17.37;74.17;101039.16;5093397;28;45844;-69
2023/05/07 05:34:11;;;;;;;;;0.00;0.00;;;;;17.44;74.32;101049.97;5093624;27;44943;-70
2023/05/07 05:36:36;;;;;;;;;0.00;0.00;;;;;17.45;73.57;101040.97;5094994;27;45119;-69
2023/05/07 05:39:02;;;;;;;;;1.67;0.00;;;;;17.39;73.55;101030.16;5094485;27;45144;-69
2023/05/07 05:41:27;;;;;;;;;1.33;0.00;;;;;17.45;73.59;101040.06;5098464;27;45149;-69
2023/05/07 05:43:52;;;;;;;;;0.33;0.00;;;;;17.47;73.01;101047.28;5092565;27;45310;-69
2023/05/07 05:46:18;;;;;;;;;0.00;0.00;;;;;17.50;73.23;101044.59;5091810;28;45238;-68
2023/05/07 05:48:43;;;;;;;;;0.00;0.00;;;;;17.43;72.96;101031.06;5066231;28;45194;-70
2023/05/07 05:51:08;;;;;;;;;1.33;0.00;;;;;17.54;73.09;101052.69;5088279;27;45315;-71
2023/05/07 05:53:34;;;;;;;;;0.00;0.00;;;;;17.54;73.12;101053.63;5090786;28;45041;-69
2023/05/07 05:55:59;;;;;;;;;0.00;0.00;;;;;17.54;73.36;101056.31;5075064;28;45092;-71
2023/05/07 05:58:24;;;;;;;;;0.00;0.00;;;;;17.52;73.06;101057.19;5093922;28;45046;-70
2023/05/07 06:00:52;;;;;;;;;2.00;1.00;;;;;17.45;72.97;101050.88;5092810;28;45560;-71
2023/05/07 06:03:17;;;;;;;;;0.33;0.33;;;;;17.48;72.92;101059.00;5092793;28;45163;-71
2023/05/07 06:05:43;;;;;;;;;1.00;1.00;;;;;17.53;72.37;101053.59;5096188;27;45191;-71
2023/05/07 06:08:08;;;;;;;;;1.33;0.33;;;;;17.41;73.06;101047.28;5079842;27;45322;-69
2023/05/07 06:10:35;;;;;;;;;0.33;0.33;;;;;17.29;72.84;101012.09;5087381;27;46063;-70
2023/05/07 06:13:00;;;;;;;;;3.00;3.00;;;;;17.45;73.33;101057.16;5092569;27;45181;-69
2023/05/07 06:15:25;;;;;;;;;1.00;1.00;;;;;17.57;73.33;101056.34;5091115;27;57738;-71
2023/05/07 06:17:51;;;;;;;;;2.00;1.00;;;;;17.49;73.23;101048.19;5081993;27;44990;-70
2023/05/07 06:20:16;;;;;;;;;0.33;0.33;;;;;17.57;73.21;101066.22;5091793;27;47532;-69
2023/05/07 06:22:41;;;;;;;;;0.33;0.33;;;;;17.60;73.13;101067.13;5095693;27;45087;-70
2023/05/07 06:25:07;;;;;;;;;3.00;3.00;;;;;17.31;72.78;101027.44;5091442;27;45024;-70
2023/05/07 06:27:32;;;;;;;;;4.00;2.67;;;;;17.59;73.27;101070.75;5088325;28;45065;-72
2023/05/07 06:29:58;;;;;;;;;2.00;1.00;;;;;17.59;73.04;101083.34;5086436;27;45601;-68
2023/05/07 06:32:23;;;;;;;;;1.00;1.00;;;;;17.48;72.40;101051.78;5091672;27;45116;-69
2023/05/07 06:34:48;;;;;;;;;1.00;1.00;;;;;17.51;72.58;101056.31;5088133;28;45186;-72
2023/05/07 06:37:14;;;;;;;;;1.00;1.00;;;;;17.58;72.65;101060.81;5081532;27;45302;-69
2023/05/07 06:39:39;;;;;;;;;1.00;1.00;;;;;17.56;72.75;101061.72;5094295;27;62289;-70
2023/05/07 06:42:04;;;;;;;;;3.00;1.00;;;;;17.58;72.77;101058.13;5086904;27;44961;-70
2023/05/07 06:44:31;;;;;;;;;1.33;0.33;;;;;17.68;72.80;101072.56;5093871;27;45205;-69
2023/05/07 06:46:57;;;;;;;;;2.00;2.00;;;;;17.70;73.02;101073.44;5084792;27;45142;-70
2023/05/07 06:49:22;;;;;;;;;2.33;2.33;;;;;17.55;72.43;101046.41;5089124;27;45286;-71
2023/05/07 06:51:47;;;;;;;;;1.33;1.00;;;;;17.73;72.51;101075.28;5085100;27;45135;-69
2023/05/07 06:54:13;;;;;;;;;2.33;1.00;;;;;17.76;73.21;101075.28;5057580;27;45951;-70
2023/05/07 06:56:38;;;;;;;;;0.67;0.67;;;;;17.71;72.33;101059.06;5079697;27;45453;-70
2023/05/07 06:59:03;;;;;;;;;1.00;1.00;;;;;17.80;71.98;101072.59;5086440;27;46101;-70
2023/05/07 07:01:29;;;;;;;;;1.33;1.33;;;;;17.70;71.28;101054.53;5071813;28;45361;-70
2023/05/07 07:03:54;;;;;;;;;0.67;0.00;;;;;17.83;72.44;101074.38;5089467;28;45392;-68
2023/05/07 07:06:20;;;;;;;;;1.00;1.00;;;;;17.91;72.09;101079.84;5079228;27;45602;-70
2023/05/07 07:08:45;;;;;;;;;3.33;2.67;;;;;17.90;71.34;101086.13;5073323;28;46555;-70
2023/05/07 07:11:10;;;;;;;;;1.67;1.00;;;;;17.84;71.80;101079.78;5091500;27;45470;-70
2023/05/07 07:13:36;;;;;;;;;2.67;1.00;;;;;17.84;72.18;101074.38;5075493;27;45638;-70
2023/05/07 07:16:01;;;;;;;;;1.67;1.00;;;;;17.81;72.36;101073.47;5077036;28;45396;-70
2023/05/07 07:18:27;;;;;;;;;1.00;1.00;;;;;17.96;72.50;101094.25;5073864;28;46949;-72
2023/05/07 07:20:52;;;;;;;;;1.00;1.00;;;;;17.92;71.84;101098.78;5079712;27;45276;-72
2023/05/07 07:23:18;;;;;;;;;0.00;0.00;;;;;17.91;72.16;101107.78;5088703;27;45463;-70
2023/05/07 07:25:43;;;;;;;;;1.00;1.00;;;;;17.94;72.54;101112.28;5092596;27;45149;-68
2023/05/07 07:28:10;;;;;;;;;0.67;0.67;;;;;17.92;72.57;101105.94;5076522;27;45766;-70
2023/05/07 07:30:36;;;;;;;;;1.00;1.00;;;;;17.90;72.30;101110.47;5089271;28;45160;-69
2023/05/07 07:33:03;;;;;;;;;5.00;4.00;;;;;17.89;72.52;101116.78;5087294;28;45237;-70
2023/05/07 07:35:29;;;;;;;;;6.67;5.00;;;;;17.85;72.19;101122.16;5069630;28;44938;-67
2023/05/07 07:37:54;;;;;;;;;3.00;3.00;;;;;17.83;72.56;101114.94;5091908;28;45123;-68
2023/05/07 07:40:20;;;;;;;;;3.33;0.67;;;;;17.80;72.20;101114.91;5091714;28;45737;-67
2023/05/07 07:42:45;;;;;;;;;3.00;1.00;;;;;17.71;72.21;101107.69;5091694;27;45162;-67
2023/05/07 07:45:11;;;;;;;;;1.00;1.00;;;;;17.75;72.43;101111.31;5090967;28;44944;-68
2023/05/07 07:47:36;;;;;;;;;2.33;1.00;;;;;17.81;72.33;101120.31;5083764;27;46225;-68
2023/05/07 07:50:02;;;;;;;;;1.00;1.00;;;;;17.80;72.34;101118.53;5091326;27;45117;-68
2023/05/07 07:52:27;;;;;;;;;1.67;1.67;;;;;17.84;72.64;101130.25;5090149;27;45192;-68
2023/05/07 07:54:52;;;;;;;;;1.00;0.00;;;;;17.85;72.70;101124.84;5073156;28;45528;-66
2023/05/07 07:57:18;;;;;;;;;2.00;1.00;;;;;17.83;72.46;101123.03;5076485;27;45786;-68
2023/05/07 07:59:43;;;;;;;;;1.00;1.00;;;;;17.91;72.77;101123.09;5089089;27;45505;-68
2023/05/07 08:02:09;;;;;;;;;2.00;2.00;;;;;17.94;72.87;101125.81;5083990;28;45212;-69
2023/05/07 08:04:35;;;;;;;;;1.00;1.00;;;;;17.96;72.21;101126.72;5076996;28;45462;-69
2023/05/07 08:07:00;;;;;;;;;3.33;2.00;;;;;17.96;72.49;101134.81;5082564;27;45669;-69
2023/05/07 08:09:25;;;;;;;;;0.33;0.00;;;;;18.00;71.73;101131.19;5087313;27;45145;-66
2023/05/07 08:11:51;;;;;;;;;1.00;1.00;;;;;18.03;72.14;101128.50;5078546;28;45485;-67
2023/05/07 08:14:16;;;;;;;;;1.00;1.00;;;;;17.75;71.35;101081.56;5074511;27;45314;-68
2023/05/07 08:16:42;;;;;;;;;0.33;0.33;;;;;18.00;71.08;101117.69;5076660;27;46635;-67
2023/05/07 08:19:07;;;;;;;;;1.00;1.00;;;;;17.98;70.71;101114.09;5090214;27;45327;-68
2023/05/07 08:21:47;;;;;;;;;6.00;5.00;;;;;18.15;71.37;101143.84;5018495;27;45183;-68
2023/05/07 08:24:13;;;;;;;;;2.00;2.00;;;;;18.17;71.10;101142.97;5002958;27;45637;-70
2023/05/07 08:26:39;;;;;;;;;1.00;1.00;;;;;18.15;70.64;101144.78;5005099;27;45212;-70
2023/05/07 08:29:04;;;;;;;;;1.00;1.00;;;;;18.20;71.06;101147.50;5000551;27;45357;-71
2023/05/07 08:31:30;;;;;;;;;2.33;1.33;;;;;18.23;70.70;101150.16;4989556;27;46410;-67
2023/05/07 08:33:56;;;;;;;;;1.00;1.00;;;;;18.21;71.01;101150.19;4988965;28;45482;-69
2023/05/07 08:36:21;;;;;;;;;3.33;2.00;;;;;18.22;71.10;101156.50;4983538;27;45502;-68
2023/05/07 08:38:46;;;;;;;;;1.00;1.00;;;;;18.10;71.01;101138.47;4987967;28;45455;-70
2023/05/07 08:41:12;;;;;;;;;2.00;2.00;;;;;18.13;70.33;101140.25;4986354;28;46163;-70
2023/05/07 08:43:38;;;;;;;;;3.00;3.00;;;;;18.18;70.48;101143.84;4968097;27;45485;-67
2023/05/07 08:46:04;;;;;;;;;1.00;0.33;;;;;17.81;70.36;101087.00;4983791;28;45235;-68
2023/05/07 08:48:32;;;;;;;;;2.00;2.00;;;;;18.24;71.22;101139.34;4989997;27;45373;-69
2023/05/07 08:50:58;;;;;;;;;2.00;2.00;;;;;18.32;70.70;101165.53;5000742;27;45486;-70
2023/05/07 08:53:24;;;;;;;;;3.00;3.00;;;;;18.26;70.26;101143.88;4998760;27;45318;-69
2023/05/07 08:55:50;;;;;;;;;3.00;2.67;;;;;18.41;70.36;101161.03;4999588;27;45218;-67
2023/05/07 08:58:15;;;;;;;;;1.00;1.00;;;;;18.42;69.41;101167.34;5001650;27;45135;-69
2023/05/07 09:00:41;;;;;;;;;1.00;1.00;;;;;18.31;69.24;101147.47;5000680;27;46721;-69
2023/05/07 09:03:07;;;;;;;;;1.00;1.00;;;;;18.33;69.89;101160.13;4988304;27;45294;-68
2023/05/07 09:05:32;;;;;;;;;4.67;4.67;;;;;18.38;69.75;101158.31;4984873;27;45139;-70
2023/05/07 09:08:02;;;;;;;;;0.67;0.67;;;;;18.40;69.69;101159.22;4984081;28;45345;-67
2023/05/07 09:10:29;;;;;;;;;1.00;0.00;;;;;18.39;69.68;101153.81;4996434;27;45547;-69
2023/05/07 09:12:55;;;;;;;;;3.00;1.33;;;;;18.42;69.76;101157.41;4997771;27;45040;-68
2023/05/07 09:15:20;;;;;;;;;2.00;1.00;;;;;18.45;69.55;101159.22;4986521;27;45338;-72
2023/05/07 09:17:46;;;;;;;;;2.33;1.33;;;;;18.51;69.86;101158.31;4994426;27;45253;-70
2023/05/07 09:20:11;;;;;;;;;1.00;1.00;;;;;18.28;68.67;101115.94;4985567;28;47181;-72
2023/05/07 09:22:37;;;;;;;;;2.33;2.00;;;;;18.66;69.27;101154.69;4995823;27;45199;-71
2023/05/07 09:25:03;;;;;;;;;0.67;0.00;;;;;18.72;68.75;101163.72;4974207;28;45529;-74
2023/05/07 09:27:31;;;;;;;;;2.33;2.33;;;;;18.72;68.38;101149.28;4989060;27;45483;-71
2023/05/07 09:29:59;;;;;;;;;2.67;2.00;;;;;18.84;68.23;101156.53;4984879;28;47286;-75
2023/05/07 09:32:25;;;;;;;;;1.00;1.00;;;;;18.56;68.02;101110.50;4971074;27;45539;-75
2023/05/07 09:34:50;;;;;;;;;2.00;2.00;;;;;18.76;68.59;101138.47;4975767;28;45566;-76
2023/05/07 09:37:16;;;;;;;;;2.00;2.00;;;;;18.82;67.77;101150.19;4985415;27;45194;-69
2023/05/07 09:39:47;;;;;;;;;2.00;2.00;;;;;18.89;67.93;101161.06;4981346;28;45622;-71
2023/05/07 09:42:14;;;;;;;;;42.25;37.25;;;;;18.89;67.96;101161.06;4982260;28;45692;-71
2023/05/07 09:44:41;;;;;;;;;2.33;2.33;;;;;18.95;67.45;101162.84;4968955;28;45039;-71
2023/05/07 09:47:07;;;;;;;;;2.33;2.33;;;;;18.95;67.43;101163.72;4986201;28;45474;-72
2023/05/07 09:49:37;;;;;;;;;4.00;4.00;;;;;18.95;67.60;101154.72;4964775;28;45432;-70
2023/05/07 09:52:06;;;;;;;;;1.00;1.00;;;;;18.87;67.02;101149.28;4970578;28;45640;-72
2023/05/07 09:54:33;;;;;;;;;5.00;5.00;;;;;18.99;66.93;101161.94;4973795;28;45418;-71
2023/05/07 09:57:02;;;;;;;;;2.00;2.00;;;;;19.07;67.14;101161.91;4969737;28;45512;-71
2023/05/07 09:59:28;;;;;;;;;5.00;5.00;;;;;19.09;67.46;101165.50;4980694;28;47473;-70
2023/05/07 10:01:58;;;;;;;;;2.33;2.00;;;;;19.13;67.54;101165.50;4982125;28;45318;-71
2023/05/07 10:04:25;;;;;;;;;22.33;21.00;;;;;19.05;67.29;101136.63;4986779;28;45236;-70
2023/05/07 10:06:50;;;;;;;;;3.00;3.00;;;;;19.19;66.55;101167.31;4996991;28;44965;-71
2023/05/07 10:09:16;;;;;;;;;5.00;5.00;;;;;19.08;66.68;101152.88;4990336;28;45567;-71
2023/05/07 10:11:43;;;;;;;;;3.00;3.00;;;;;19.12;66.44;101162.78;4982353;28;45189;-71
2023/05/07 10:14:09;;;;;;;;;4.33;2.67;;;;;19.01;65.62;101153.81;4981250;28;45005;-71
2023/05/07 10:16:36;;;;;;;;;4.33;4.33;;;;;19.15;66.05;101173.63;4981590;28;45474;-72
2023/05/07 10:19:04;;;;;;;;;5.00;3.67;;;;;19.12;66.26;101166.44;5010809;28;45488;-71
2023/05/07 10:21:31;;;;;;;;;3.67;2.33;;;;;19.23;65.70;101174.50;4982011;28;44907;-71
2023/05/07 10:24:05;;;;;;;;;2.00;2.00;;;;;19.33;65.45;101176.28;4983762;28;45309;-71
2023/05/07 10:26:32;;;;;;;;;2.00;2.00;;;;;19.32;65.30;101169.06;4983564;28;45111;-71
2023/05/07 10:29:14;;;;;;;;;3.00;3.00;;;;;19.26;65.70;101174.50;4973941;28;45948;-70
2023/05/07 10:31:55;;;;;;;;;21.33;19.33;;;;;19.29;65.72;101179.03;4983266;28;45075;-71
2023/05/07 10:34:27;;;;;;;;;5.00;3.67;;;;;19.33;65.43;101176.28;4979052;28;45551;-71
2023/05/07 10:36:56;;;;;;;;;5.33;5.33;;;;;19.37;65.31;101179.91;4982729;28;45382;-73
2023/05/07 10:39:22;;;;;;;;;5.00;3.00;;;;;19.39;65.30;101167.25;4989008;27;47293;-72
2023/05/07 10:41:48;;;;;;;;;2.00;2.00;;;;;19.37;65.17;101176.28;4975705;28;45040;-71
2023/05/07 10:44:29;;;;;;;;;1.33;1.33;;;;;19.31;65.59;101158.25;4970667;28;45046;-72
2023/05/07 10:47:12;;;;;;;;;4.00;3.00;;;;;19.43;65.63;101176.25;4982296;28;45224;-72
2023/05/07 10:49:46;;;;;;;;;5.00;5.00;;;;;19.48;65.15;101180.75;4973469;28;45562;-71
2023/05/07 10:52:17;;;;;;;;;4.00;3.67;;;;;19.50;65.17;101183.44;4979016;28;45651;-71
2023/05/07 10:54:44;;;;;;;;;2.33;2.33;;;;;19.49;64.96;101184.38;4987974;28;45288;-72
2023/05/07 10:57:28;;;;;;;;;4.33;4.00;;;;;19.54;65.79;101192.50;4979470;28;45381;-72
2023/05/07 10:59:54;;;;;;;;;9.00;9.00;;;;;19.54;66.17;101187.09;4966170;28;47833;-71
2023/05/07 11:02:20;;;;;;;;;5.00;4.00;;;;;19.48;66.72;101175.31;4972188;28;45333;-72
2023/05/07 11:04:45;;;;;;;;;10.00;7.33;;;;;19.51;66.64;101177.13;4978013;28;45249;-70
2023/05/07 11:07:29;;;;;;;;;6.00;5.00;;;;;19.61;66.54;101186.13;4979261;28;45354;-70
2023/05/07 11:09:58;;;;;;;;;6.33;6.33;;;;;19.52;66.13;101159.97;4970428;28;46528;-70
2023/05/07 11:12:35;;;;;;;;;5.67;5.67;;;;;19.75;66.60;101186.06;4988306;28;45142;-70
2023/05/07 11:15:10;;;;;;;;;6.00;6.00;;;;;19.83;66.73;101187.91;4984873;28;45130;-70
2023/05/07 11:18:03;;;;;;;;;9.00;6.33;;;;;19.92;66.34;101181.50;4974696;28;45220;-70
2023/05/07 11:20:58;;;;;;;;;7.33;6.00;;;;;19.99;65.58;101185.97;4982647;28;45682;-71